sensor_id;sensor_type;location;lat;lon;timestamp;P1;durP1;ratioP1;P2;durP2;ratioP2
36817;SDS011;22761;51.542;16.450;2024-01-15T00:01:01;15.50;;;8.10;;
36817;SDS011;22761;51.542;16.450;2024-01-15T00:03:49;12.50;;;7.80;;
36817;SDS011;22761;51.542;16.450;2024-01-15T00:06:18;15.70;;;8.40;;
36817;SDS011;22761;51.542;16.450;2024-01-15T00:08:46;15.40;;;8.20;;
36817;SDS011;22761;51.542;16.450;2024-01-15T00:11:14;13.40;;;7.60;;
36817;SDS011;22761;51.542;16.450;2024-01-15T00:13:42;14.00;;;7.80;;
36817;SDS011;22761;51.542;16.450;2024-01-15T00:16:10;13.20;;;7.70;;
36817;SDS011;22761;51.542;16.450;2024-01-15T00:18:39;12.90;;;7.50;;
36817;SDS011;22761;51.542;16.450;2024-01-15T00:21:08;15.80;;;8.60;;
36817;SDS011;22761;51.542;16.450;2024-01-15T00:23:36;13.70;;;8.10;;
36817;SDS011;22761;51.542;16.450;2024-01-15T00:26:05;15.30;;;8.60;;
36817;SDS011;22761;51.542;16.450;2024-01-15T00:28:37;14.10;;;8.60;;
36817;SDS011;22761;51.542;16.450;2024-01-15T00:31:05;13.80;;;8.00;;
36817;SDS011;22761;51.542;16.450;2024-01-15T00:33:34;13.80;;;7.90;;
36817;SDS011;22761;51.542;16.450;2024-01-15T00:36:16;13.20;;;8.40;;
36817;SDS011;22761;51.542;16.450;2024-01-15T00:38:44;14.00;;;8.30;;
36817;SDS011;22761;51.542;16.450;2024-01-15T00:41:15;15.00;;;8.30;;
36817;SDS011;22761;51.542;16.450;2024-01-15T00:43:44;13.90;;;8.40;;
36817;SDS011;22761;51.542;16.450;2024-01-15T00:46:13;15.30;;;9.00;;
36817;SDS011;22761;51.542;16.450;2024-01-15T00:48:41;14.20;;;8.40;;
36817;SDS011;22761;51.542;16.450;2024-01-15T00:51:09;14.50;;;7.60;;
36817;SDS011;22761;51.542;16.450;2024-01-15T00:53:38;16.30;;;8.40;;
36817;SDS011;22761;51.542;16.450;2024-01-15T00:56:06;16.60;;;9.10;;
36817;SDS011;22761;51.542;16.450;2024-01-15T00:58:34;15.90;;;8.90;;
36817;SDS011;22761;51.542;16.450;2024-01-15T01:01:03;14.20;;;8.70;;
36817;SDS011;22761;51.542;16.450;2024-01-15T01:03:31;15.10;;;8.30;;
36817;SDS011;22761;51.542;16.450;2024-01-15T01:06:00;17.00;;;8.50;;
36817;SDS011;22761;51.542;16.450;2024-01-15T01:08:28;17.30;;;8.80;;
36817;SDS011;22761;51.542;16.450;2024-01-15T01:10:56;17.10;;;9.50;;
36817;SDS011;22761;51.542;16.450;2024-01-15T01:13:24;17.90;;;8.80;;
36817;SDS011;22761;51.542;16.450;2024-01-15T01:15:53;15.70;;;9.30;;
36817;SDS011;22761;51.542;16.450;2024-01-15T01:18:21;16.30;;;9.40;;
36817;SDS011;22761;51.542;16.450;2024-01-15T01:20:49;16.30;;;9.20;;
36817;SDS011;22761;51.542;16.450;2024-01-15T01:23:18;16.90;;;8.80;;
36817;SDS011;22761;51.542;16.450;2024-01-15T01:25:46;15.50;;;9.50;;
36817;SDS011;22761;51.542;16.450;2024-01-15T01:28:15;14.50;;;8.70;;
36817;SDS011;22761;51.542;16.450;2024-01-15T01:30:43;17.50;;;9.80;;
36817;SDS011;22761;51.542;16.450;2024-01-15T01:33:12;16.70;;;8.70;;
36817;SDS011;22761;51.542;16.450;2024-01-15T01:35:40;15.90;;;8.10;;
36817;SDS011;22761;51.542;16.450;2024-01-15T01:38:08;14.70;;;8.80;;
36817;SDS011;22761;51.542;16.450;2024-01-15T01:40:36;18.50;;;9.40;;
36817;SDS011;22761;51.542;16.450;2024-01-15T01:43:05;15.60;;;9.00;;
36817;SDS011;22761;51.542;16.450;2024-01-15T01:45:33;14.50;;;8.00;;
36817;SDS011;22761;51.542;16.450;2024-01-15T01:48:01;17.10;;;8.10;;
36817;SDS011;22761;51.542;16.450;2024-01-15T01:50:30;13.60;;;7.90;;
36817;SDS011;22761;51.542;16.450;2024-01-15T01:53:00;16.30;;;8.80;;
36817;SDS011;22761;51.542;16.450;2024-01-15T01:55:31;18.00;;;9.90;;
36817;SDS011;22761;51.542;16.450;2024-01-15T01:58:01;16.30;;;8.70;;
36817;SDS011;22761;51.542;16.450;2024-01-15T02:00:30;16.50;;;9.40;;
36817;SDS011;22761;51.542;16.450;2024-01-15T02:02:59;15.00;;;8.50;;
36817;SDS011;22761;51.542;16.450;2024-01-15T02:05:27;14.70;;;7.70;;
36817;SDS011;22761;51.542;16.450;2024-01-15T02:07:56;13.20;;;8.00;;
36817;SDS011;22761;51.542;16.450;2024-01-15T02:10:24;14.90;;;8.40;;
36817;SDS011;22761;51.542;16.450;2024-01-15T02:12:52;12.10;;;7.20;;
36817;SDS011;22761;51.542;16.450;2024-01-15T02:15:20;14.90;;;8.60;;
36817;SDS011;22761;51.542;16.450;2024-01-15T02:20:30;13.60;;;8.40;;
36817;SDS011;22761;51.542;16.450;2024-01-15T02:25:43;11.80;;;7.90;;
36817;SDS011;22761;51.542;16.450;2024-01-15T02:28:14;14.00;;;7.90;;
36817;SDS011;22761;51.542;16.450;2024-01-15T02:30:45;11.10;;;7.20;;
36817;SDS011;22761;51.542;16.450;2024-01-15T02:33:14;13.30;;;7.30;;
36817;SDS011;22761;51.542;16.450;2024-01-15T02:35:42;13.60;;;7.40;;
36817;SDS011;22761;51.542;16.450;2024-01-15T02:38:10;13.40;;;7.50;;
36817;SDS011;22761;51.542;16.450;2024-01-15T02:40:39;11.80;;;7.10;;
36817;SDS011;22761;51.542;16.450;2024-01-15T02:43:07;13.20;;;8.00;;
36817;SDS011;22761;51.542;16.450;2024-01-15T02:45:35;14.30;;;7.80;;
36817;SDS011;22761;51.542;16.450;2024-01-15T02:48:04;12.60;;;8.10;;
36817;SDS011;22761;51.542;16.450;2024-01-15T02:50:33;12.00;;;7.30;;
36817;SDS011;22761;51.542;16.450;2024-01-15T02:53:01;13.20;;;7.30;;
36817;SDS011;22761;51.542;16.450;2024-01-15T02:55:29;12.20;;;7.20;;
36817;SDS011;22761;51.542;16.450;2024-01-15T02:57:57;12.10;;;7.50;;
36817;SDS011;22761;51.542;16.450;2024-01-15T03:00:27;13.60;;;8.10;;
36817;SDS011;22761;51.542;16.450;2024-01-15T03:02:55;14.20;;;8.30;;
36817;SDS011;22761;51.542;16.450;2024-01-15T03:05:23;12.40;;;7.80;;
36817;SDS011;22761;51.542;16.450;2024-01-15T03:07:52;13.10;;;7.60;;
36817;SDS011;22761;51.542;16.450;2024-01-15T03:10:20;14.30;;;7.70;;
36817;SDS011;22761;51.542;16.450;2024-01-15T03:12:48;13.60;;;8.10;;
36817;SDS011;22761;51.542;16.450;2024-01-15T03:15:16;13.20;;;7.80;;
36817;SDS011;22761;51.542;16.450;2024-01-15T03:17:46;14.10;;;7.50;;
36817;SDS011;22761;51.542;16.450;2024-01-15T03:20:14;14.70;;;8.40;;
36817;SDS011;22761;51.542;16.450;2024-01-15T03:22:43;13.40;;;7.90;;
36817;SDS011;22761;51.542;16.450;2024-01-15T03:25:11;13.10;;;7.60;;
36817;SDS011;22761;51.542;16.450;2024-01-15T03:27:39;13.50;;;7.50;;
36817;SDS011;22761;51.542;16.450;2024-01-15T03:30:08;12.20;;;7.50;;
36817;SDS011;22761;51.542;16.450;2024-01-15T03:32:36;13.60;;;8.20;;
36817;SDS011;22761;51.542;16.450;2024-01-15T03:35:05;16.50;;;7.70;;
36817;SDS011;22761;51.542;16.450;2024-01-15T03:37:34;13.00;;;7.70;;
36817;SDS011;22761;51.542;16.450;2024-01-15T03:40:03;14.00;;;8.50;;
36817;SDS011;22761;51.542;16.450;2024-01-15T03:42:32;15.60;;;8.20;;
36817;SDS011;22761;51.542;16.450;2024-01-15T03:45:01;15.80;;;8.80;;
36817;SDS011;22761;51.542;16.450;2024-01-15T03:47:30;14.30;;;8.50;;
36817;SDS011;22761;51.542;16.450;2024-01-15T03:49:59;14.80;;;9.10;;
36817;SDS011;22761;51.542;16.450;2024-01-15T03:52:27;14.10;;;8.70;;
36817;SDS011;22761;51.542;16.450;2024-01-15T03:54:56;14.90;;;8.50;;
36817;SDS011;22761;51.542;16.450;2024-01-15T03:57:24;17.00;;;8.60;;
36817;SDS011;22761;51.542;16.450;2024-01-15T03:59:52;14.60;;;8.70;;
36817;SDS011;22761;51.542;16.450;2024-01-15T04:02:20;15.60;;;9.30;;
36817;SDS011;22761;51.542;16.450;2024-01-15T04:04:49;13.40;;;8.30;;
36817;SDS011;22761;51.542;16.450;2024-01-15T04:07:17;13.20;;;8.20;;
36817;SDS011;22761;51.542;16.450;2024-01-15T04:09:45;13.90;;;8.10;;
36817;SDS011;22761;51.542;16.450;2024-01-15T04:12:13;15.70;;;8.10;;
36817;SDS011;22761;51.542;16.450;2024-01-15T04:14:42;13.00;;;8.60;;
36817;SDS011;22761;51.542;16.450;2024-01-15T04:17:10;14.00;;;8.40;;
36817;SDS011;22761;51.542;16.450;2024-01-15T04:19:39;14.20;;;8.20;;
36817;SDS011;22761;51.542;16.450;2024-01-15T04:22:07;15.90;;;8.30;;
36817;SDS011;22761;51.542;16.450;2024-01-15T04:24:35;14.30;;;7.40;;
36817;SDS011;22761;51.542;16.450;2024-01-15T04:27:04;14.40;;;8.20;;
36817;SDS011;22761;51.542;16.450;2024-01-15T04:29:33;13.80;;;8.20;;
36817;SDS011;22761;51.542;16.450;2024-01-15T04:32:04;12.40;;;7.90;;
36817;SDS011;22761;51.542;16.450;2024-01-15T04:34:32;14.00;;;8.50;;
36817;SDS011;22761;51.542;16.450;2024-01-15T04:37:01;12.20;;;7.40;;
36817;SDS011;22761;51.542;16.450;2024-01-15T04:39:29;15.10;;;8.70;;
36817;SDS011;22761;51.542;16.450;2024-01-15T04:41:58;12.70;;;7.00;;
36817;SDS011;22761;51.542;16.450;2024-01-15T04:44:26;12.20;;;7.10;;
36817;SDS011;22761;51.542;16.450;2024-01-15T04:46:54;14.30;;;7.90;;
36817;SDS011;22761;51.542;16.450;2024-01-15T04:49:22;13.10;;;7.50;;
36817;SDS011;22761;51.542;16.450;2024-01-15T04:51:50;13.00;;;7.50;;
36817;SDS011;22761;51.542;16.450;2024-01-15T04:54:19;13.00;;;7.60;;
36817;SDS011;22761;51.542;16.450;2024-01-15T04:56:48;11.70;;;6.70;;
36817;SDS011;22761;51.542;16.450;2024-01-15T04:59:16;13.50;;;7.50;;
36817;SDS011;22761;51.542;16.450;2024-01-15T05:01:44;11.00;;;6.40;;
36817;SDS011;22761;51.542;16.450;2024-01-15T05:04:13;12.40;;;7.30;;
36817;SDS011;22761;51.542;16.450;2024-01-15T05:06:41;13.00;;;7.40;;
36817;SDS011;22761;51.542;16.450;2024-01-15T05:09:09;11.30;;;6.50;;
36817;SDS011;22761;51.542;16.450;2024-01-15T05:11:38;12.40;;;7.00;;
36817;SDS011;22761;51.542;16.450;2024-01-15T05:14:06;10.50;;;6.20;;
36817;SDS011;22761;51.542;16.450;2024-01-15T05:16:34;13.20;;;7.10;;
36817;SDS011;22761;51.542;16.450;2024-01-15T05:19:03;10.40;;;5.80;;
36817;SDS011;22761;51.542;16.450;2024-01-15T05:21:31;9.30;;;6.30;;
36817;SDS011;22761;51.542;16.450;2024-01-15T05:23:59;12.00;;;6.90;;
36817;SDS011;22761;51.542;16.450;2024-01-15T05:26:28;9.70;;;6.00;;
36817;SDS011;22761;51.542;16.450;2024-01-15T05:28:56;10.30;;;6.50;;
36817;SDS011;22761;51.542;16.450;2024-01-15T05:31:24;9.40;;;6.20;;
36817;SDS011;22761;51.542;16.450;2024-01-15T05:33:53;9.60;;;5.40;;
36817;SDS011;22761;51.542;16.450;2024-01-15T05:36:21;9.30;;;5.90;;
36817;SDS011;22761;51.542;16.450;2024-01-15T05:38:49;8.60;;;5.70;;
36817;SDS011;22761;51.542;16.450;2024-01-15T05:41:18;9.00;;;5.60;;
36817;SDS011;22761;51.542;16.450;2024-01-15T05:43:46;10.10;;;5.70;;
36817;SDS011;22761;51.542;16.450;2024-01-15T05:46:14;10.40;;;5.70;;
36817;SDS011;22761;51.542;16.450;2024-01-15T05:48:43;10.10;;;5.90;;
36817;SDS011;22761;51.542;16.450;2024-01-15T05:51:12;10.00;;;5.70;;
36817;SDS011;22761;51.542;16.450;2024-01-15T05:53:40;8.90;;;5.80;;
36817;SDS011;22761;51.542;16.450;2024-01-15T05:56:10;10.00;;;5.90;;
36817;SDS011;22761;51.542;16.450;2024-01-15T05:58:39;10.10;;;5.70;;
36817;SDS011;22761;51.542;16.450;2024-01-15T06:01:07;11.20;;;5.70;;
36817;SDS011;22761;51.542;16.450;2024-01-15T06:03:35;10.40;;;5.70;;
36817;SDS011;22761;51.542;16.450;2024-01-15T06:06:04;10.60;;;5.60;;
36817;SDS011;22761;51.542;16.450;2024-01-15T06:08:32;9.90;;;5.90;;
36817;SDS011;22761;51.542;16.450;2024-01-15T06:11:00;9.30;;;5.30;;
36817;SDS011;22761;51.542;16.450;2024-01-15T06:13:29;8.30;;;5.30;;
36817;SDS011;22761;51.542;16.450;2024-01-15T06:15:57;9.80;;;5.40;;
36817;SDS011;22761;51.542;16.450;2024-01-15T06:18:25;10.70;;;5.40;;
36817;SDS011;22761;51.542;16.450;2024-01-15T06:20:54;12.50;;;5.70;;
36817;SDS011;22761;51.542;16.450;2024-01-15T06:23:22;10.70;;;5.10;;
36817;SDS011;22761;51.542;16.450;2024-01-15T06:25:50;8.90;;;5.70;;
36817;SDS011;22761;51.542;16.450;2024-01-15T06:28:18;11.60;;;5.70;;
36817;SDS011;22761;51.542;16.450;2024-01-15T06:30:46;10.90;;;5.80;;
36817;SDS011;22761;51.542;16.450;2024-01-15T06:33:15;9.40;;;5.80;;
36817;SDS011;22761;51.542;16.450;2024-01-15T06:35:43;8.60;;;5.60;;
36817;SDS011;22761;51.542;16.450;2024-01-15T06:38:12;10.30;;;5.40;;
36817;SDS011;22761;51.542;16.450;2024-01-15T06:40:40;10.20;;;5.00;;
36817;SDS011;22761;51.542;16.450;2024-01-15T06:43:14;8.10;;;5.40;;
36817;SDS011;22761;51.542;16.450;2024-01-15T06:45:45;9.10;;;5.30;;
36817;SDS011;22761;51.542;16.450;2024-01-15T06:48:14;8.30;;;5.30;;
36817;SDS011;22761;51.542;16.450;2024-01-15T06:50:44;8.30;;;4.90;;
36817;SDS011;22761;51.542;16.450;2024-01-15T06:53:13;10.20;;;5.20;;
36817;SDS011;22761;51.542;16.450;2024-01-15T06:55:41;8.20;;;4.90;;
36817;SDS011;22761;51.542;16.450;2024-01-15T06:58:09;10.00;;;5.20;;
36817;SDS011;22761;51.542;16.450;2024-01-15T07:00:37;12.40;;;5.70;;
36817;SDS011;22761;51.542;16.450;2024-01-15T07:03:06;11.10;;;5.60;;
36817;SDS011;22761;51.542;16.450;2024-01-15T07:05:35;10.30;;;5.70;;
36817;SDS011;22761;51.542;16.450;2024-01-15T07:08:05;10.70;;;5.50;;
36817;SDS011;22761;51.542;16.450;2024-01-15T07:10:33;11.20;;;5.70;;
36817;SDS011;22761;51.542;16.450;2024-01-15T07:13:04;10.70;;;6.20;;
36817;SDS011;22761;51.542;16.450;2024-01-15T07:15:33;11.50;;;6.00;;
36817;SDS011;22761;51.542;16.450;2024-01-15T07:18:01;14.00;;;6.90;;
36817;SDS011;22761;51.542;16.450;2024-01-15T07:20:30;9.00;;;6.00;;
36817;SDS011;22761;51.542;16.450;2024-01-15T07:22:58;10.60;;;5.90;;
36817;SDS011;22761;51.542;16.450;2024-01-15T07:25:26;10.90;;;6.20;;
36817;SDS011;22761;51.542;16.450;2024-01-15T07:27:55;10.30;;;5.50;;
36817;SDS011;22761;51.542;16.450;2024-01-15T07:30:23;9.00;;;5.30;;
36817;SDS011;22761;51.542;16.450;2024-01-15T07:32:52;10.90;;;6.40;;
36817;SDS011;22761;51.542;16.450;2024-01-15T07:35:21;8.20;;;4.80;;
36817;SDS011;22761;51.542;16.450;2024-01-15T07:37:49;9.50;;;5.20;;
36817;SDS011;22761;51.542;16.450;2024-01-15T07:40:17;11.20;;;5.80;;
36817;SDS011;22761;51.542;16.450;2024-01-15T07:42:45;10.10;;;5.60;;
36817;SDS011;22761;51.542;16.450;2024-01-15T07:45:14;11.40;;;6.20;;
36817;SDS011;22761;51.542;16.450;2024-01-15T07:47:43;11.30;;;6.10;;
36817;SDS011;22761;51.542;16.450;2024-01-15T07:50:12;12.20;;;6.30;;
36817;SDS011;22761;51.542;16.450;2024-01-15T07:52:40;10.40;;;6.40;;
36817;SDS011;22761;51.542;16.450;2024-01-15T07:55:11;11.90;;;6.40;;
36817;SDS011;22761;51.542;16.450;2024-01-15T07:57:39;11.90;;;5.40;;
36817;SDS011;22761;51.542;16.450;2024-01-15T08:00:08;12.00;;;6.40;;
36817;SDS011;22761;51.542;16.450;2024-01-15T08:02:37;13.20;;;5.60;;
36817;SDS011;22761;51.542;16.450;2024-01-15T08:05:06;11.80;;;6.10;;
36817;SDS011;22761;51.542;16.450;2024-01-15T08:07:35;9.10;;;5.10;;
36817;SDS011;22761;51.542;16.450;2024-01-15T08:10:03;11.40;;;5.40;;
36817;SDS011;22761;51.542;16.450;2024-01-15T08:12:32;10.90;;;5.10;;
36817;SDS011;22761;51.542;16.450;2024-01-15T08:15:00;12.10;;;6.10;;
36817;SDS011;22761;51.542;16.450;2024-01-15T08:17:29;10.90;;;6.10;;
36817;SDS011;22761;51.542;16.450;2024-01-15T08:19:57;10.50;;;5.90;;
36817;SDS011;22761;51.542;16.450;2024-01-15T08:22:27;11.20;;;5.40;;
36817;SDS011;22761;51.542;16.450;2024-01-15T08:24:58;12.50;;;6.50;;
36817;SDS011;22761;51.542;16.450;2024-01-15T08:27:26;15.80;;;6.20;;
36817;SDS011;22761;51.542;16.450;2024-01-15T08:29:55;11.70;;;5.90;;
36817;SDS011;22761;51.542;16.450;2024-01-15T08:32:24;10.30;;;5.90;;
36817;SDS011;22761;51.542;16.450;2024-01-15T08:34:52;9.80;;;5.50;;
36817;SDS011;22761;51.542;16.450;2024-01-15T08:37:20;11.60;;;5.40;;
36817;SDS011;22761;51.542;16.450;2024-01-15T08:39:48;11.20;;;5.40;;
36817;SDS011;22761;51.542;16.450;2024-01-15T08:42:19;10.50;;;5.90;;
36817;SDS011;22761;51.542;16.450;2024-01-15T08:44:47;10.70;;;5.50;;
36817;SDS011;22761;51.542;16.450;2024-01-15T08:47:15;9.00;;;5.30;;
36817;SDS011;22761;51.542;16.450;2024-01-15T08:49:44;9.30;;;5.00;;
36817;SDS011;22761;51.542;16.450;2024-01-15T08:52:13;12.30;;;5.60;;
36817;SDS011;22761;51.542;16.450;2024-01-15T08:54:42;12.00;;;5.60;;
36817;SDS011;22761;51.542;16.450;2024-01-15T08:57:10;10.00;;;5.30;;
36817;SDS011;22761;51.542;16.450;2024-01-15T08:59:39;9.90;;;4.70;;
36817;SDS011;22761;51.542;16.450;2024-01-15T09:02:09;9.40;;;5.10;;
36817;SDS011;22761;51.542;16.450;2024-01-15T09:04:37;10.90;;;4.80;;
36817;SDS011;22761;51.542;16.450;2024-01-15T09:07:06;8.90;;;4.90;;
36817;SDS011;22761;51.542;16.450;2024-01-15T09:09:34;10.60;;;5.50;;
36817;SDS011;22761;51.542;16.450;2024-01-15T09:12:03;9.90;;;5.40;;
36817;SDS011;22761;51.542;16.450;2024-01-15T09:14:31;8.90;;;4.50;;
36817;SDS011;22761;51.542;16.450;2024-01-15T09:17:04;8.70;;;4.80;;
36817;SDS011;22761;51.542;16.450;2024-01-15T09:19:33;9.00;;;4.40;;
36817;SDS011;22761;51.542;16.450;2024-01-15T09:22:01;13.80;;;4.70;;
36817;SDS011;22761;51.542;16.450;2024-01-15T09:24:30;10.50;;;5.20;;
36817;SDS011;22761;51.542;16.450;2024-01-15T09:26:58;11.00;;;5.10;;
36817;SDS011;22761;51.542;16.450;2024-01-15T09:29:26;8.30;;;4.00;;
36817;SDS011;22761;51.542;16.450;2024-01-15T09:31:54;13.60;;;4.90;;
36817;SDS011;22761;51.542;16.450;2024-01-15T09:34:23;12.30;;;4.60;;
36817;SDS011;22761;51.542;16.450;2024-01-15T09:36:52;9.70;;;4.70;;
36817;SDS011;22761;51.542;16.450;2024-01-15T09:39:20;9.30;;;5.00;;
36817;SDS011;22761;51.542;16.450;2024-01-15T09:41:49;11.40;;;5.20;;
36817;SDS011;22761;51.542;16.450;2024-01-15T09:44:17;8.10;;;4.00;;
36817;SDS011;22761;51.542;16.450;2024-01-15T09:46:47;8.30;;;4.20;;
36817;SDS011;22761;51.542;16.450;2024-01-15T09:49:18;10.20;;;4.40;;
36817;SDS011;22761;51.542;16.450;2024-01-15T09:51:46;9.00;;;4.70;;
36817;SDS011;22761;51.542;16.450;2024-01-15T09:54:29;11.00;;;4.20;;
36817;SDS011;22761;51.542;16.450;2024-01-15T09:56:58;8.20;;;4.60;;
36817;SDS011;22761;51.542;16.450;2024-01-15T09:59:26;10.80;;;4.10;;
36817;SDS011;22761;51.542;16.450;2024-01-15T10:01:55;7.80;;;3.80;;
36817;SDS011;22761;51.542;16.450;2024-01-15T10:04:23;9.70;;;3.60;;
36817;SDS011;22761;51.542;16.450;2024-01-15T10:06:52;7.00;;;3.40;;
36817;SDS011;22761;51.542;16.450;2024-01-15T10:09:21;9.90;;;4.00;;
36817;SDS011;22761;51.542;16.450;2024-01-15T10:11:49;7.80;;;3.50;;
36817;SDS011;22761;51.542;16.450;2024-01-15T10:14:18;8.40;;;3.80;;
36817;SDS011;22761;51.542;16.450;2024-01-15T10:16:46;8.10;;;3.60;;
36817;SDS011;22761;51.542;16.450;2024-01-15T10:19:14;8.30;;;3.60;;
36817;SDS011;22761;51.542;16.450;2024-01-15T10:21:42;9.50;;;4.20;;
36817;SDS011;22761;51.542;16.450;2024-01-15T10:24:11;8.30;;;4.50;;
36817;SDS011;22761;51.542;16.450;2024-01-15T10:26:40;9.90;;;4.20;;
36817;SDS011;22761;51.542;16.450;2024-01-15T10:29:08;9.80;;;4.30;;
36817;SDS011;22761;51.542;16.450;2024-01-15T10:31:37;11.30;;;4.60;;
36817;SDS011;22761;51.542;16.450;2024-01-15T10:34:12;9.80;;;4.20;;
36817;SDS011;22761;51.542;16.450;2024-01-15T10:36:45;6.90;;;3.90;;
36817;SDS011;22761;51.542;16.450;2024-01-15T10:39:16;8.70;;;3.60;;
36817;SDS011;22761;51.542;16.450;2024-01-15T10:41:44;8.20;;;4.10;;
36817;SDS011;22761;51.542;16.450;2024-01-15T10:44:12;8.20;;;4.30;;
36817;SDS011;22761;51.542;16.450;2024-01-15T10:46:41;8.80;;;4.40;;
36817;SDS011;22761;51.542;16.450;2024-01-15T10:49:09;7.90;;;3.60;;
36817;SDS011;22761;51.542;16.450;2024-01-15T10:51:39;8.20;;;4.20;;
36817;SDS011;22761;51.542;16.450;2024-01-15T10:54:08;7.40;;;3.60;;
36817;SDS011;22761;51.542;16.450;2024-01-15T10:56:38;7.40;;;3.90;;
36817;SDS011;22761;51.542;16.450;2024-01-15T10:59:07;6.70;;;3.50;;
36817;SDS011;22761;51.542;16.450;2024-01-15T11:01:38;8.50;;;3.90;;
36817;SDS011;22761;51.542;16.450;2024-01-15T11:04:06;5.20;;;3.30;;
36817;SDS011;22761;51.542;16.450;2024-01-15T11:06:45;8.20;;;3.80;;
36817;SDS011;22761;51.542;16.450;2024-01-15T11:09:18;7.80;;;3.90;;
36817;SDS011;22761;51.542;16.450;2024-01-15T11:11:46;8.30;;;3.70;;
36817;SDS011;22761;51.542;16.450;2024-01-15T11:14:34;8.60;;;3.40;;
36817;SDS011;22761;51.542;16.450;2024-01-15T11:17:03;8.70;;;4.30;;
36817;SDS011;22761;51.542;16.450;2024-01-15T11:19:36;10.00;;;4.30;;
36817;SDS011;22761;51.542;16.450;2024-01-15T11:25:03;9.90;;;4.70;;
36817;SDS011;22761;51.542;16.450;2024-01-15T11:27:39;8.20;;;4.20;;
36817;SDS011;22761;51.542;16.450;2024-01-15T11:30:09;7.90;;;4.30;;
36817;SDS011;22761;51.542;16.450;2024-01-15T11:32:39;7.10;;;3.50;;
36817;SDS011;22761;51.542;16.450;2024-01-15T11:35:12;11.50;;;4.70;;
36817;SDS011;22761;51.542;16.450;2024-01-15T11:40:22;8.00;;;4.30;;
36817;SDS011;22761;51.542;16.450;2024-01-15T11:43:06;9.40;;;4.10;;
36817;SDS011;22761;51.542;16.450;2024-01-15T11:45:38;11.10;;;4.70;;
36817;SDS011;22761;51.542;16.450;2024-01-15T11:48:12;10.20;;;4.10;;
36817;SDS011;22761;51.542;16.450;2024-01-15T11:50:48;9.20;;;4.30;;
36817;SDS011;22761;51.542;16.450;2024-01-15T11:53:25;8.70;;;4.40;;
36817;SDS011;22761;51.542;16.450;2024-01-15T11:56:05;9.00;;;4.00;;
36817;SDS011;22761;51.542;16.450;2024-01-15T11:58:37;7.20;;;3.80;;
36817;SDS011;22761;51.542;16.450;2024-01-15T12:01:06;8.20;;;4.40;;
36817;SDS011;22761;51.542;16.450;2024-01-15T12:03:34;9.40;;;4.20;;
36817;SDS011;22761;51.542;16.450;2024-01-15T12:06:06;8.50;;;4.20;;
36817;SDS011;22761;51.542;16.450;2024-01-15T12:08:35;5.90;;;4.20;;
36817;SDS011;22761;51.542;16.450;2024-01-15T12:11:07;7.70;;;4.30;;
36817;SDS011;22761;51.542;16.450;2024-01-15T12:13:39;7.70;;;4.20;;
36817;SDS011;22761;51.542;16.450;2024-01-15T12:16:07;6.80;;;3.80;;
36817;SDS011;22761;51.542;16.450;2024-01-15T12:18:36;7.00;;;4.20;;
36817;SDS011;22761;51.542;16.450;2024-01-15T12:21:04;9.10;;;3.60;;
36817;SDS011;22761;51.542;16.450;2024-01-15T12:23:33;8.60;;;3.40;;
36817;SDS011;22761;51.542;16.450;2024-01-15T12:26:01;8.80;;;4.30;;
36817;SDS011;22761;51.542;16.450;2024-01-15T12:28:29;6.90;;;3.80;;
36817;SDS011;22761;51.542;16.450;2024-01-15T12:30:58;6.70;;;3.60;;
36817;SDS011;22761;51.542;16.450;2024-01-15T12:33:28;7.50;;;3.60;;
36817;SDS011;22761;51.542;16.450;2024-01-15T12:35:56;8.70;;;3.50;;
36817;SDS011;22761;51.542;16.450;2024-01-15T12:38:25;8.60;;;4.10;;
36817;SDS011;22761;51.542;16.450;2024-01-15T12:40:53;7.50;;;3.30;;
36817;SDS011;22761;51.542;16.450;2024-01-15T12:43:22;7.10;;;3.40;;
36817;SDS011;22761;51.542;16.450;2024-01-15T12:45:50;6.00;;;3.20;;
36817;SDS011;22761;51.542;16.450;2024-01-15T12:48:19;7.40;;;3.10;;
36817;SDS011;22761;51.542;16.450;2024-01-15T12:50:47;7.10;;;3.20;;
36817;SDS011;22761;51.542;16.450;2024-01-15T12:53:16;8.30;;;4.10;;
36817;SDS011;22761;51.542;16.450;2024-01-15T12:55:45;7.60;;;3.30;;
36817;SDS011;22761;51.542;16.450;2024-01-15T12:58:14;6.10;;;3.60;;
36817;SDS011;22761;51.542;16.450;2024-01-15T13:00:45;6.40;;;3.30;;
36817;SDS011;22761;51.542;16.450;2024-01-15T13:03:15;5.60;;;3.50;;
36817;SDS011;22761;51.542;16.450;2024-01-15T13:05:45;8.60;;;3.70;;
36817;SDS011;22761;51.542;16.450;2024-01-15T13:08:13;7.00;;;3.30;;
36817;SDS011;22761;51.542;16.450;2024-01-15T13:10:41;5.80;;;2.90;;
36817;SDS011;22761;51.542;16.450;2024-01-15T13:13:10;8.90;;;3.40;;
36817;SDS011;22761;51.542;16.450;2024-01-15T13:15:38;7.00;;;3.50;;
36817;SDS011;22761;51.542;16.450;2024-01-15T13:18:07;8.10;;;3.60;;
36817;SDS011;22761;51.542;16.450;2024-01-15T13:20:35;8.50;;;3.90;;
36817;SDS011;22761;51.542;16.450;2024-01-15T13:23:04;7.40;;;3.40;;
36817;SDS011;22761;51.542;16.450;2024-01-15T13:25:32;9.20;;;3.20;;
36817;SDS011;22761;51.542;16.450;2024-01-15T13:28:06;6.50;;;3.20;;
36817;SDS011;22761;51.542;16.450;2024-01-15T13:30:36;8.40;;;3.40;;
36817;SDS011;22761;51.542;16.450;2024-01-15T13:33:05;8.20;;;3.10;;
36817;SDS011;22761;51.542;16.450;2024-01-15T13:35:34;9.80;;;3.60;;
36817;SDS011;22761;51.542;16.450;2024-01-15T13:38:04;8.60;;;4.00;;
36817;SDS011;22761;51.542;16.450;2024-01-15T13:40:32;7.50;;;3.20;;
36817;SDS011;22761;51.542;16.450;2024-01-15T13:43:00;5.80;;;3.00;;
36817;SDS011;22761;51.542;16.450;2024-01-15T13:45:28;7.00;;;3.00;;
36817;SDS011;22761;51.542;16.450;2024-01-15T13:47:58;8.20;;;3.30;;
36817;SDS011;22761;51.542;16.450;2024-01-15T13:50:26;6.90;;;3.00;;
36817;SDS011;22761;51.542;16.450;2024-01-15T13:52:55;8.50;;;3.30;;
36817;SDS011;22761;51.542;16.450;2024-01-15T13:55:23;6.40;;;2.80;;
36817;SDS011;22761;51.542;16.450;2024-01-15T13:57:52;5.90;;;2.90;;
36817;SDS011;22761;51.542;16.450;2024-01-15T14:00:20;5.80;;;2.40;;
36817;SDS011;22761;51.542;16.450;2024-01-15T14:02:49;5.70;;;3.30;;
36817;SDS011;22761;51.542;16.450;2024-01-15T14:05:17;6.00;;;2.70;;
36817;SDS011;22761;51.542;16.450;2024-01-15T14:07:46;8.60;;;3.00;;
36817;SDS011;22761;51.542;16.450;2024-01-15T14:10:15;7.90;;;2.70;;
36817;SDS011;22761;51.542;16.450;2024-01-15T14:12:43;7.90;;;3.50;;
36817;SDS011;22761;51.542;16.450;2024-01-15T14:15:12;5.10;;;2.70;;
36817;SDS011;22761;51.542;16.450;2024-01-15T14:17:40;5.80;;;2.70;;
36817;SDS011;22761;51.542;16.450;2024-01-15T14:20:09;7.20;;;3.00;;
36817;SDS011;22761;51.542;16.450;2024-01-15T14:22:38;8.20;;;2.80;;
36817;SDS011;22761;51.542;16.450;2024-01-15T14:25:07;6.70;;;2.80;;
36817;SDS011;22761;51.542;16.450;2024-01-15T14:27:35;5.70;;;3.10;;
36817;SDS011;22761;51.542;16.450;2024-01-15T14:30:04;7.40;;;3.20;;
36817;SDS011;22761;51.542;16.450;2024-01-15T14:32:34;5.10;;;2.70;;
36817;SDS011;22761;51.542;16.450;2024-01-15T14:35:02;9.00;;;2.60;;
36817;SDS011;22761;51.542;16.450;2024-01-15T14:37:32;7.10;;;2.60;;
36817;SDS011;22761;51.542;16.450;2024-01-15T14:40:01;5.80;;;2.70;;
36817;SDS011;22761;51.542;16.450;2024-01-15T14:42:29;5.90;;;3.30;;
36817;SDS011;22761;51.542;16.450;2024-01-15T14:44:58;5.10;;;2.90;;
36817;SDS011;22761;51.542;16.450;2024-01-15T14:47:26;6.70;;;3.30;;